Time;durP1;ratioP1;P1;durP2;ratioP2;P2;SDS_P1;SDS_P2;PMS_P1;PMS_P2;Temp;Humidity;BMP_temperature;BMP_pressure;BME280_temperature;BME280_humidity;BME280_pressure;Samples;Min_cycle;Max_cycle;Signal;HPM_P1;HPM_P2
2021/09/26 00:00:12;119839.00;0.40;207.80;0.00;0.00;0.62;;;;;22.50;1.00;;;;;;2280204;60;1098;-90
2021/09/26 00:02:39;207622.00;0.69;359.04;0.00;0.00;0.62;;;;;22.40;1.00;;;;;;2280088;60;1257;-90
2021/09/26 00:05:07;212279.00;0.71;367.06;0.00;0.00;0.62;;;;;22.40;1.00;;;;;;2280178;60;1024;-89
2021/09/26 00:07:34;413934.00;1.38;713.76;0.00;0.00;0.62;;;;;22.40;1.00;;;;;;2280118;60;2006;-90
2021/09/26 00:10:01;201369.00;0.67;348.28;0.00;0.00;0.62;;;;;21.90;1.00;;;;;;2280234;60;1116;-89
2021/09/26 00:12:28;126417.00;0.42;219.15;0.00;0.00;0.62;;;;;21.50;1.70;;;;;;2280171;60;1281;-90
2021/09/26 00:14:55;253975.00;0.85;438.79;49753.00;0.17;86.76;;;;;21.30;2.20;;;;;;2280182;60;1047;-88
2021/09/26 00:17:23;143358.00;0.48;248.36;0.00;0.00;0.62;;;;;21.50;1.80;;;;;;2280849;60;1344;-90
2021/09/26 00:19:50;352448.00;1.17;608.07;0.00;0.00;0.62;;;;;21.30;2.30;;;;;;2280964;60;1052;-90
2021/09/26 00:22:18;210152.00;0.70;363.40;0.00;0.00;0.62;;;;;21.50;1.40;;;;;;2280886;60;1296;-90
2021/09/26 00:24:45;197555.00;0.66;341.71;0.00;0.00;0.62;;;;;21.60;1.60;;;;;;2280880;60;1500;-90
2021/09/26 00:27:12;287309.00;0.96;496.10;0.00;0.00;0.62;;;;;21.70;1.40;;;;;;2280860;60;1915;-89
2021/09/26 00:29:39;392854.00;1.31;677.52;117856.00;0.39;204.38;;;;;21.80;1.50;;;;;;2280878;60;1092;-89
2021/09/26 00:32:07;446761.00;1.49;770.21;41005.00;0.14;71.63;;;;;21.90;1.00;;;;;;2280886;60;1290;-90
2021/09/26 00:34:36;65239.00;0.22;113.53;0.00;0.00;0.62;;;;;22.00;1.00;;;;;;2280915;60;1098;-89
2021/09/26 00:37:04;243526.00;0.81;420.82;0.00;0.00;0.62;;;;;21.90;1.20;;;;;;2280852;60;985;-90
2021/09/26 00:39:31;141538.00;0.47;245.22;0.00;0.00;0.62;;;;;22.10;1.00;;;;;;2280901;60;1030;-90
2021/09/26 00:41:58;148425.00;0.49;257.09;59718.00;0.20;103.99;;;;;22.40;1.00;;;;;;2280819;60;1297;-89
2021/09/26 00:44:25;140225.00;0.47;242.96;0.00;0.00;0.62;;;;;22.40;1.00;;;;;;2280867;60;1055;-90
2021/09/26 00:46:53;70985.00;0.24;123.46;0.00;0.00;0.62;;;;;22.50;1.00;;;;;;2272057;61;1923;-90
2021/09/26 00:49:20;81384.00;0.27;141.43;0.00;0.00;0.62;;;;;22.60;1.00;;;;;;2272124;61;1794;-91
2021/09/26 00:51:50;191855.00;0.64;331.90;0.00;0.00;0.62;;;;;22.60;1.00;;;;;;2272121;61;1318;-91
2021/09/26 00:54:17;104322.00;0.35;181.03;0.00;0.00;0.62;;;;;22.70;1.00;;;;;;2272095;61;1679;-90
2021/09/26 00:56:47;154006.00;0.51;266.71;0.00;0.00;0.62;;;;;22.80;1.00;;;;;;2272139;61;1106;-89
2021/09/26 00:59:14;80623.00;0.27;140.11;0.00;0.00;0.62;;;;;22.50;1.00;;;;;;2272129;61;1139;-88
2021/09/26 01:01:41;268968.00;0.90;464.57;36312.00;0.12;63.51;;;;;22.40;1.00;;;;;;2272063;61;1290;-90
2021/09/26 01:04:08;122197.00;0.41;211.87;0.00;0.00;0.62;;;;;22.30;1.00;;;;;;2273457;60;1535;-90
2021/09/26 01:06:44;435373.00;1.45;750.63;61533.00;0.21;107.13;;;;;22.30;1.00;;;;;;2280672;60;1919;-89
2021/09/26 01:09:21;142745.00;0.48;247.30;0.00;0.00;0.62;;;;;22.40;1.00;;;;;;2280761;60;1012;-89
2021/09/26 01:11:57;158046.00;0.53;273.67;0.00;0.00;0.62;;;;;22.40;1.00;;;;;;2280198;60;1777;-89
2021/09/26 01:14:29;76515.00;0.26;133.02;0.00;0.00;0.62;;;;;22.50;1.00;;;;;;2280654;60;1723;-89
2021/09/26 01:17:09;150181.00;0.50;260.12;0.00;0.00;0.62;;;;;22.50;1.00;;;;;;2280707;60;2018;-89
2021/09/26 01:20:21;89751.00;0.30;155.88;0.00;0.00;0.62;;;;;22.30;1.00;;;;;;2280654;60;1725;-90
2021/09/26 01:23:09;105813.00;0.35;183.60;0.00;0.00;0.62;;;;;22.20;1.00;;;;;;2277346;60;1427;-91
2021/09/26 01:25:58;36869.00;0.12;64.47;0.00;0.00;0.62;;;;;22.10;1.00;;;;;;2280672;60;1682;-88
2021/09/26 01:28:45;57654.00;0.19;100.42;0.00;0.00;0.62;;;;;22.30;1.00;;;;;;2280640;60;1983;-89
2021/09/26 01:31:16;125574.00;0.42;217.70;0.00;0.00;0.62;;;;;22.30;1.00;;;;;;2280677;60;1139;-90
2021/09/26 01:33:47;146495.00;0.49;253.77;0.00;0.00;0.62;;;;;22.30;1.00;;;;;;2280635;60;1432;-90
2021/09/26 01:36:24;108599.00;0.36;188.41;0.00;0.00;0.62;;;;;22.50;1.00;;;;;;2280657;60;940;-89
2021/09/26 01:38:59;59973.00;0.20;104.43;0.00;0.00;0.62;;;;;22.30;1.00;;;;;;2280717;60;1126;-90
2021/09/26 01:41:33;122814.00;0.41;212.94;0.00;0.00;0.62;;;;;22.10;1.00;;;;;;2280672;60;1098;-90
2021/09/26 01:44:04;186400.00;0.62;322.51;0.00;0.00;0.62;;;;;22.00;1.00;;;;;;2280659;60;999;-92
2021/09/26 01:46:37;110640.00;0.37;191.93;0.00;0.00;0.62;;;;;22.20;1.00;;;;;;2280653;60;1989;-90
2021/09/26 01:49:10;226441.00;0.75;391.43;0.00;0.00;0.62;;;;;22.10;1.00;;;;;;2280638;60;1123;-90
2021/09/26 01:51:40;238310.00;0.79;411.84;0.00;0.00;0.62;;;;;22.00;1.00;;;;;;2280576;60;1458;-90
2021/09/26 01:54:13;116660.00;0.39;202.32;0.00;0.00;0.62;;;;;22.00;1.00;;;;;;2280615;60;1555;-91
2021/09/26 01:56:43;84447.00;0.28;146.72;0.00;0.00;0.62;;;;;22.00;1.00;;;;;;2280575;60;1033;-90
2021/09/26 01:59:12;119837.00;0.40;207.80;0.00;0.00;0.62;;;;;21.00;1.20;;;;;;2280377;60;1772;-90
2021/09/26 02:01:43;403818.00;1.35;696.37;32201.00;0.11;56.39;;;;;20.80;2.20;;;;;;2279861;60;1587;-87
2021/09/26 02:04:12;87848.00;0.29;152.59;0.00;0.00;0.62;;;;;20.90;2.00;;;;;;2280635;60;1145;-87
2021/09/26 02:06:41;318629.00;1.06;549.94;80614.00;0.27;140.10;;;;;21.10;1.00;;;;;;2280637;60;1918;-88
2021/09/26 02:09:11;91142.00;0.30;158.28;0.00;0.00;0.62;;;;;21.20;1.00;;;;;;2280642;60;922;-87
2021/09/26 02:11:40;72035.00;0.24;125.28;0.00;0.00;0.62;;;;;21.40;1.00;;;;;;2280612;60;1390;-87
2021/09/26 02:14:09;69532.00;0.23;120.95;0.00;0.00;0.62;;;;;21.40;1.00;;;;;;2280626;60;1055;-87
2021/09/26 02:16:36;189096.00;0.63;327.15;0.00;0.00;0.62;;;;;21.50;1.00;;;;;;2280541;60;1861;-87
2021/09/26 02:19:07;111802.00;0.37;193.94;0.00;0.00;0.62;;;;;21.60;1.00;;;;;;2280661;60;984;-87
2021/09/26 02:21:34;63360.00;0.21;110.28;0.00;0.00;0.62;;;;;21.70;1.00;;;;;;2280558;60;1338;-87
2021/09/26 02:24:03;54300.00;0.18;94.62;0.00;0.00;0.62;;;;;21.70;1.00;;;;;;2280559;60;1162;-88
2021/09/26 02:26:32;63746.00;0.21;110.95;0.00;0.00;0.62;;;;;21.90;1.00;;;;;;2280502;60;1088;-88
2021/09/26 02:28:59;264375.00;0.88;456.67;0.00;0.00;0.62;;;;;21.80;1.00;;;;;;2280583;60;2012;-87
2021/09/26 02:31:26;137452.00;0.46;238.18;0.00;0.00;0.62;;;;;21.80;1.00;;;;;;2280546;60;1095;-89
2021/09/26 02:33:53;136112.00;0.45;235.87;0.00;0.00;0.62;;;;;21.70;1.00;;;;;;2280558;60;1270;-88
2021/09/26 02:36:22;71319.00;0.24;124.04;0.00;0.00;0.62;;;;;21.70;1.00;;;;;;2280572;60;1122;-89
2021/09/26 02:38:49;110388.00;0.37;191.50;0.00;0.00;0.62;;;;;21.40;1.00;;;;;;2280431;60;1021;-88
2021/09/26 02:41:32;63543.00;0.21;110.60;0.00;0.00;0.62;;;;;21.30;1.00;;;;;;2280503;60;1138;-88
2021/09/26 02:44:11;163300.00;0.54;282.72;0.00;0.00;0.62;;;;;21.20;1.00;;;;;;2280484;60;1146;-86
2021/09/26 02:46:43;116390.00;0.39;201.85;0.00;0.00;0.62;;;;;21.50;1.00;;;;;;2280567;60;1012;-86
2021/09/26 02:49:10;275492.00;0.92;475.79;22397.00;0.07;39.42;;;;;21.50;1.00;;;;;;2280532;60;1139;-86
2021/09/26 02:51:40;132539.00;0.44;229.71;0.00;0.00;0.62;;;;;21.50;1.00;;;;;;2280522;60;1294;-88
2021/09/26 02:54:10;191044.00;0.64;330.51;0.00;0.00;0.62;;;;;21.50;1.00;;;;;;2280474;60;1101;-88
2021/09/26 02:56:37;140061.00;0.47;242.68;0.00;0.00;0.62;;;;;21.60;1.00;;;;;;2280487;60;1114;-87
2021/09/26 02:59:05;64528.00;0.22;112.30;0.00;0.00;0.62;;;;;21.60;1.00;;;;;;2280561;60;878;-87
2021/09/26 03:01:32;52337.00;0.17;91.23;0.00;0.00;0.62;;;;;21.60;1.00;;;;;;2280436;60;1028;-88
2021/09/26 03:04:03;136122.00;0.45;235.89;0.00;0.00;0.62;;;;;21.70;1.00;;;;;;2280502;60;1417;-87
2021/09/26 03:06:30;77334.00;0.26;134.43;0.00;0.00;0.62;;;;;21.80;1.00;;;;;;2280528;60;1100;-86
2021/09/26 03:08:59;147956.00;0.49;256.28;0.00;0.00;0.62;;;;;21.80;1.00;;;;;;2280417;60;2001;-87
2021/09/26 03:11:26;4722.00;0.02;8.80;0.00;0.00;0.62;;;;;21.70;1.00;;;;;;2280402;60;1020;-87
2021/09/26 03:13:53;137908.00;0.46;238.96;0.00;0.00;0.62;;;;;21.70;1.00;;;;;;2280396;60;1309;-85
2021/09/26 03:16:20;90508.00;0.30;157.18;0.00;0.00;0.62;;;;;21.80;1.00;;;;;;2280368;60;1064;-87
2021/09/26 03:18:47;143684.00;0.48;248.92;0.00;0.00;0.62;;;;;21.60;1.00;;;;;;2280378;60;971;-86
2021/09/26 03:21:14;234914.00;0.78;406.00;0.00;0.00;0.62;;;;;21.40;1.00;;;;;;2280471;60;1086;-87
2021/09/26 03:23:41;60886.00;0.20;106.01;0.00;0.00;0.62;;;;;21.30;1.00;;;;;;2280374;60;1423;-87
2021/09/26 03:26:10;31261.00;0.10;54.77;0.00;0.00;0.62;;;;;21.40;1.00;;;;;;2280463;60;1099;-88
2021/09/26 03:28:37;34213.00;0.11;59.87;0.00;0.00;0.62;;;;;21.60;1.00;;;;;;2280405;60;1915;-86
2021/09/26 03:31:04;109324.00;0.36;189.66;0.00;0.00;0.62;;;;;21.40;1.00;;;;;;2280396;60;1022;-86
2021/09/26 03:33:31;129132.00;0.43;223.83;0.00;0.00;0.62;;;;;21.50;1.00;;;;;;2280376;60;1317;-86
2021/09/26 03:35:58;163951.00;0.55;283.85;6924.00;0.02;12.62;;;;;21.50;1.00;;;;;;2280303;60;1085;-88
2021/09/26 03:38:25;240234.00;0.80;415.15;0.00;0.00;0.62;;;;;21.50;1.00;;;;;;2280332;60;1079;-88
2021/09/26 03:40:52;157636.00;0.53;272.97;0.00;0.00;0.62;;;;;21.70;1.00;;;;;;2280320;60;1100;-88
2021/09/26 03:43:20;57145.00;0.19;99.54;0.00;0.00;0.62;;;;;21.70;1.00;;;;;;2280276;60;1381;-87
2021/09/26 03:45:50;79446.00;0.26;138.08;0.00;0.00;0.62;;;;;21.60;1.00;;;;;;2280373;60;1095;-87
2021/09/26 03:48:18;126796.00;0.42;219.80;27047.00;0.09;47.47;;;;;21.60;1.00;;;;;;2280262;60;1981;-86
2021/09/26 03:50:45;181088.00;0.60;313.36;0.00;0.00;0.62;;;;;21.70;1.00;;;;;;2280051;60;1060;-87
2021/09/26 03:53:12;206729.00;0.69;357.51;0.00;0.00;0.62;;;;;21.70;1.00;;;;;;2280070;60;1331;-87
2021/09/26 03:55:39;464678.00;1.55;801.03;27412.00;0.09;48.10;;;;;21.70;1.00;;;;;;2280319;60;1023;-87
2021/09/26 03:58:06;427296.00;1.42;736.74;59136.00;0.20;102.98;;;;;21.50;1.00;;;;;;2280299;60;1016;-89
2021/09/26 04:00:35;56808.00;0.19;98.96;0.00;0.00;0.62;;;;;21.40;1.00;;;;;;2280291;60;1038;-87
2021/09/26 04:03:03;180995.00;0.60;313.20;0.00;0.00;0.62;;;;;21.40;1.00;;;;;;2280194;60;1307;-86
2021/09/26 04:05:30;162851.00;0.54;281.95;0.00;0.00;0.62;;;;;21.30;1.00;;;;;;2280286;60;1087;-88
2021/09/26 04:07:57;94216.00;0.31;163.59;0.00;0.00;0.62;;;;;21.10;1.00;;;;;;2280185;60;1907;-87
2021/09/26 04:10:24;109720.00;0.37;190.35;0.00;0.00;0.62;;;;;21.00;1.00;;;;;;2280259;60;1090;-86
2021/09/26 04:12:50;73182.00;0.24;127.26;0.00;0.00;0.62;;;;;20.90;1.00;;;;;;2280207;60;1373;-87
2021/09/26 04:15:19;117032080.00;390.11;64929148.00;0.00;0.00;0.62;;;;;20.80;2.30;;;;;;2280228;60;1247;-87
2021/09/26 04:17:47;195063.00;0.65;337.43;0.00;0.00;0.62;;;;;20.70;2.50;;;;;;2280194;60;989;-89
2021/09/26 04:20:14;112850.00;0.38;195.75;0.00;0.00;0.62;;;;;20.30;4.30;;;;;;2280204;60;1156;-88
2021/09/26 04:22:41;125666.00;0.42;217.86;0.00;0.00;0.62;;;;;20.10;5.20;;;;;;2280145;60;1305;-87
2021/09/26 04:25:09;215637.00;0.72;372.84;0.00;0.00;0.62;;;;;20.10;5.30;;;;;;2280170;60;1134;-86
2021/09/26 04:27:36;189278.00;0.63;327.47;0.00;0.00;0.62;;;;;20.00;6.00;;;;;;2280127;60;1986;-86
2021/09/26 04:30:04;98858.00;0.33;171.60;0.00;0.00;0.62;;;;;19.90;6.10;;;;;;2280106;60;1079;-88
2021/09/26 04:32:31;106727.00;0.36;185.18;0.00;0.00;0.62;;;;;19.60;6.70;;;;;;2280186;60;1378;-87
2021/09/26 04:34:59;279670.00;0.93;482.97;0.00;0.00;0.62;;;;;19.80;6.70;;;;;;2280161;60;1146;-86
2021/09/26 04:37:26;96461.00;0.32;167.46;0.00;0.00;0.62;;;;;19.90;5.80;;;;;;2280120;60;1013;-86
2021/09/26 04:39:53;133131.00;0.44;230.73;0.00;0.00;0.62;;;;;20.40;3.60;;;;;;2280079;60;1049;-87
2021/09/26 04:42:20;107306.00;0.36;186.18;0.00;0.00;0.62;;;;;20.60;3.50;;;;;;2280055;60;1380;-86
2021/09/26 04:44:47;157057.00;0.52;271.97;0.00;0.00;0.62;;;;;20.50;3.10;;;;;;2280118;60;1123;-87
2021/09/26 04:47:14;252156.00;0.84;435.66;106475.00;0.35;184.75;;;;;20.60;2.30;;;;;;2280174;60;1002;-88
2021/09/26 04:49:40;117164640.00;390.55;65150224.00;0.00;0.00;0.62;;;;;20.90;1.60;;;;;;2280054;60;2011;-87
2021/09/26 04:52:09;142042.00;0.47;246.09;0.00;0.00;0.62;;;;;20.90;2.10;;;;;;2280101;60;1285;-88
2021/09/26 04:54:36;93886.00;0.31;163.02;0.00;0.00;0.62;;;;;20.80;1.50;;;;;;2280070;60;1071;-87
2021/09/26 04:57:04;87602.00;0.29;152.17;0.00;0.00;0.62;;;;;20.90;1.30;;;;;;2280118;60;1091;-87
2021/09/26 04:59:30;303128.00;1.01;523.30;65494.00;0.22;113.97;;;;;20.70;2.40;;;;;;2280085;60;1177;-85
2021/09/26 05:01:57;370711.00;1.24;639.46;33969.00;0.11;59.45;;;;;20.30;3.30;;;;;;2280275;60;1319;-86
2021/09/26 05:04:24;84204.00;0.28;146.30;0.00;0.00;0.62;;;;;20.20;3.70;;;;;;2280787;60;1059;-86
2021/09/26 05:06:51;162629.00;0.54;281.57;0.00;0.00;0.62;;;;;20.40;3.40;;;;;;2280761;60;1125;-85
2021/09/26 05:09:19;116520.00;0.39;202.08;0.00;0.00;0.62;;;;;20.80;2.00;;;;;;2280684;60;1915;-85
2021/09/26 05:11:47;75745.00;0.25;131.69;0.00;0.00;0.62;;;;;20.90;1.50;;;;;;2280743;60;1401;-87
2021/09/26 05:14:14;134410.00;0.45;232.93;0.00;0.00;0.62;;;;;20.90;1.70;;;;;;2280719;60;1698;-87
2021/09/26 05:16:40;178032.00;0.59;308.10;0.00;0.00;0.62;;;;;20.80;2.10;;;;;;2280716;60;1087;-86
2021/09/26 05:19:08;171820.00;0.57;297.40;0.00;0.00;0.62;;;;;20.20;3.30;;;;;;2280647;60;1060;-85
2021/09/26 05:21:36;103971.00;0.35;180.43;0.00;0.00;0.62;;;;;19.80;5.40;;;;;;2280696;60;1379;-87
2021/09/26 05:24:03;122304.00;0.41;212.06;0.00;0.00;0.62;;;;;19.60;5.80;;;;;;2280772;60;1051;-86
2021/09/26 05:26:31;394306.00;1.31;680.02;35100.00;0.12;61.41;;;;;19.40;6.00;;;;;;2280681;60;1133;-87
2021/09/26 05:28:58;150623.00;0.50;260.88;0.00;0.00;0.62;;;;;19.70;5.90;;;;;;2280649;60;1998;-85
2021/09/26 05:31:25;118245.00;0.39;205.05;0.00;0.00;0.62;;;;;20.10;4.00;;;;;;2280677;60;1140;-86
2021/09/26 05:33:52;174815.00;0.58;302.56;0.00;0.00;0.62;;;;;20.60;3.00;;;;;;2280606;60;1205;-86
2021/09/26 05:36:19;174331.00;0.58;301.73;0.00;0.00;0.62;;;;;20.90;1.90;;;;;;2280688;60;1534;-86
2021/09/26 05:38:46;125871.00;0.42;218.21;0.00;0.00;0.62;;;;;20.90;1.40;;;;;;2280702;60;1126;-86
2021/09/26 05:41:13;234594.00;0.78;405.45;45384.00;0.15;79.20;;;;;20.80;1.90;;;;;;2280640;60;990;-88
2021/09/26 05:43:41;215313.00;0.72;372.28;0.00;0.00;0.62;;;;;20.30;3.20;;;;;;2280625;60;1389;-87
2021/09/26 05:46:08;180190.00;0.60;311.82;0.00;0.00;0.62;;;;;20.70;2.20;;;;;;2280611;60;1173;-88
2021/09/26 05:48:35;136929.00;0.46;237.28;0.00;0.00;0.62;;;;;20.90;2.60;;;;;;2280535;60;1997;-87
2021/09/26 05:51:02;89684.00;0.30;155.76;0.00;0.00;0.62;;;;;21.20;2.40;;;;;;2280605;60;1083;-85
2021/09/26 05:53:29;84368.00;0.28;146.58;0.00;0.00;0.62;;;;;21.50;2.00;;;;;;2280549;60;1277;-87
2021/09/26 05:55:56;176782.00;0.59;305.95;0.00;0.00;0.62;;;;;21.80;1.70;;;;;;2280610;60;1059;-86
2021/09/26 05:58:23;141823.00;0.47;245.71;0.00;0.00;0.62;;;;;22.00;1.40;;;;;;2280544;60;1106;-86
2021/09/26 06:00:51;78006.00;0.26;135.59;0.00;0.00;0.62;;;;;21.70;1.60;;;;;;2280546;60;1052;-87
2021/09/26 06:03:18;164973.00;0.55;285.61;0.00;0.00;0.62;;;;;21.60;1.20;;;;;;2280472;60;1269;-87
2021/09/26 06:05:46;421416.00;1.40;726.63;80304.00;0.27;139.56;;;;;21.90;1.80;;;;;;2280550;60;1114;-86
2021/09/26 06:08:13;177947.00;0.59;307.95;0.00;0.00;0.62;;;;;22.30;1.00;;;;;;2280526;60;1997;-87
2021/09/26 06:10:40;210644.00;0.70;364.24;0.00;0.00;0.62;;;;;22.40;1.00;;;;;;2280566;60;1110;-87
2021/09/26 06:13:07;71520.00;0.24;124.39;0.00;0.00;0.62;;;;;22.70;1.00;;;;;;2280390;60;1384;-87
2021/09/26 06:15:34;94621.00;0.32;164.29;0.00;0.00;0.62;;;;;23.30;1.00;;;;;;2280337;60;1539;-88
2021/09/26 06:18:03;278399.00;0.93;480.78;0.00;0.00;0.62;;;;;23.80;1.00;;;;;;2280329;60;1094;-88
2021/09/26 06:20:30;176477.00;0.59;305.42;0.00;0.00;0.62;;;;;23.90;1.00;;;;;;2280402;60;1090;-87
2021/09/26 06:22:57;55573.00;0.19;96.82;0.00;0.00;0.62;;;;;23.80;1.00;;;;;;2280383;60;1390;-88
2021/09/26 06:25:26;100304.00;0.33;174.10;0.00;0.00;0.62;;;;;23.80;1.00;;;;;;2280409;60;1138;-87
2021/09/26 06:27:53;211861.00;0.71;366.34;0.00;0.00;0.62;;;;;23.20;1.00;;;;;;2280397;60;1114;-87
2021/09/26 06:30:20;147495.00;0.49;255.49;0.00;0.00;0.62;;;;;23.00;1.00;;;;;;2280417;60;1157;-87
2021/09/26 06:32:47;243277.00;0.81;420.39;0.00;0.00;0.62;;;;;22.90;1.00;;;;;;2280453;60;1277;-87
2021/09/26 06:35:15;290797.00;0.97;502.10;0.00;0.00;0.62;;;;;22.60;1.00;;;;;;2280400;60;909;-86
2021/09/26 06:37:42;68384.00;0.23;118.97;0.00;0.00;0.62;;;;;23.00;1.00;;;;;;2280309;60;927;-86
2021/09/26 06:40:10;45072.00;0.15;78.66;0.00;0.00;0.62;;;;;23.30;1.00;;;;;;2280557;60;1150;-86
2021/09/26 06:42:37;75334.00;0.25;130.98;0.00;0.00;0.62;;;;;23.80;1.00;;;;;;2280463;60;1408;-88
2021/09/26 06:45:05;179808.00;0.60;311.16;0.00;0.00;0.62;;;;;23.70;1.00;;;;;;2280360;60;930;-87
2021/09/26 06:47:32;130509.00;0.44;226.21;0.00;0.00;0.62;;;;;24.20;1.00;;;;;;2280493;60;1110;-87
2021/09/26 06:49:59;72726.00;0.24;126.47;0.00;0.00;0.62;;;;;24.50;1.00;;;;;;2280506;60;1924;-87
2021/09/26 06:52:27;50336.00;0.17;87.77;0.00;0.00;0.62;;;;;24.20;1.00;;;;;;2280509;60;1274;-86
2021/09/26 06:54:55;241958.00;0.81;418.12;0.00;0.00;0.62;;;;;24.30;1.00;;;;;;2280496;60;1165;-86
2021/09/26 06:57:21;287226.00;0.96;495.96;67767.00;0.23;117.90;;;;;24.40;1.00;;;;;;2280358;60;1126;-86
2021/09/26 06:59:48;167093.00;0.56;289.26;0.00;0.00;0.62;;;;;23.80;1.00;;;;;;2280405;60;1083;-87
2021/09/26 07:02:18;256076.00;0.85;442.40;41892.00;0.14;73.16;;;;;24.00;1.00;;;;;;2280339;60;1520;-85
2021/09/26 07:04:44;202818.00;0.68;350.77;0.00;0.00;0.62;;;;;24.50;1.00;;;;;;2280273;60;1705;-87
2021/09/26 07:07:11;53235.00;0.18;92.78;0.00;0.00;0.62;;;;;24.20;1.00;;;;;;2280348;60;1068;-87
2021/09/26 07:09:40;109887.00;0.37;190.64;0.00;0.00;0.62;;;;;24.10;1.00;;;;;;2280289;60;2006;-87
2021/09/26 07:12:08;67160.00;0.22;116.85;0.00;0.00;0.62;;;;;24.50;1.00;;;;;;2280370;60;1395;-87
2021/09/26 07:14:35;77961.00;0.26;135.52;0.00;0.00;0.62;;;;;25.10;1.00;;;;;;2280424;60;925;-86
2021/09/26 07:17:02;164645.00;0.55;285.04;0.00;0.00;0.62;;;;;25.90;1.00;;;;;;2280276;60;1153;-89
2021/09/26 07:19:29;144892.00;0.48;251.00;0.00;0.00;0.62;;;;;26.40;1.00;;;;;;2280233;60;1117;-87
2021/09/26 07:21:56;123233.00;0.41;213.66;0.00;0.00;0.62;;;;;25.90;1.00;;;;;;2280218;60;1277;-88
2021/09/26 07:24:23;128472.00;0.43;222.69;0.00;0.00;0.62;;;;;25.90;1.00;;;;;;2280187;60;1101;-86
2021/09/26 07:26:51;12092.00;0.04;21.57;0.00;0.00;0.62;;;;;26.00;1.00;;;;;;2280012;60;1103;-89
2021/09/26 07:29:18;204835.00;0.68;354.25;0.00;0.00;0.62;;;;;26.20;1.00;;;;;;2279844;60;1986;-88
2021/09/26 07:31:46;231943.00;0.77;400.89;40455.00;0.13;70.68;;;;;26.40;1.00;;;;;;2280094;60;1229;-87
2021/09/26 07:34:13;178928.00;0.60;309.64;0.00;0.00;0.62;;;;;26.60;1.00;;;;;;2280259;60;1125;-87
2021/09/26 07:36:40;96391.00;0.32;167.34;0.00;0.00;0.62;;;;;26.40;1.00;;;;;;2280064;60;1113;-87
2021/09/26 07:39:08;264285.00;0.88;456.52;0.00;0.00;0.62;;;;;26.20;1.00;;;;;;2280091;60;1116;-88
2021/09/26 07:41:34;140410.00;0.47;243.28;0.00;0.00;0.62;;;;;25.90;1.00;;;;;;2280189;60;1181;-87
2021/09/26 07:44:03;75487.00;0.25;131.24;0.00;0.00;0.62;;;;;25.90;1.00;;;;;;2280064;60;1445;-86
2021/09/26 07:46:30;157702.00;0.53;273.08;0.00;0.00;0.62;;;;;25.80;1.00;;;;;;2280097;60;1055;-87
2021/09/26 07:48:56;47063.00;0.16;82.11;0.00;0.00;0.62;;;;;25.50;1.00;;;;;;2280220;60;2005;-87
2021/09/26 07:51:23;161932.00;0.54;280.37;0.00;0.00;0.62;;;;;25.00;1.00;;;;;;2280226;60;1153;-87
2021/09/26 07:53:50;210475.00;0.70;363.95;15455.00;0.05;27.40;;;;;24.90;1.00;;;;;;2280178;60;1274;-87
2021/09/26 07:56:18;174126.00;0.58;301.37;0.00;0.00;0.62;;;;;24.90;1.00;;;;;;2280188;60;1091;-87
2021/09/26 07:58:45;130806.00;0.44;226.72;10240.00;0.03;18.36;;;;;24.60;1.00;;;;;;2280173;60;1156;-86
2021/09/26 08:01:13;229195.00;0.76;396.16;27792.00;0.09;48.76;;;;;24.40;1.00;;;;;;2280051;61;1105;-87
2021/09/26 08:03:40;257596.00;0.86;445.01;32579.00;0.11;57.05;;;;;24.20;1.00;;;;;;2280030;60;1416;-86
2021/09/26 08:06:07;190871.00;0.64;330.21;0.00;0.00;0.62;;;;;24.20;1.00;;;;;;2280135;60;1071;-86
2021/09/26 08:08:36;241107.00;0.80;416.66;29677.00;0.10;52.02;;;;;24.40;1.00;;;;;;2280060;60;1989;-87
2021/09/26 08:11:03;241765.00;0.81;417.79;0.00;0.00;0.62;;;;;24.40;1.00;;;;;;2280028;60;1051;-87
2021/09/26 08:13:30;317386.00;1.06;547.81;51562.00;0.17;89.89;;;;;24.40;1.00;;;;;;2279993;60;1280;-87
2021/09/26 08:15:57;106541.00;0.36;184.86;0.00;0.00;0.62;;;;;24.00;1.00;;;;;;2280086;60;1082;-87
2021/09/26 08:18:25;269721.00;0.90;465.86;84421.00;0.28;146.67;;;;;23.90;1.20;;;;;;2280090;60;1095;-88
2021/09/26 08:20:52;118489792.00;394.97;67387936.00;0.00;0.00;0.62;;;;;24.20;1.00;;;;;;2280022;60;906;-89
2021/09/26 08:23:19;103892.00;0.35;180.29;0.00;0.00;0.62;;;;;24.20;1.00;;;;;;2279921;60;1281;-86
2021/09/26 08:25:46;330669.00;1.10;570.64;36393.00;0.12;63.65;;;;;24.20;1.00;;;;;;2280031;60;1061;-88
2021/09/26 08:28:13;115540.00;0.39;200.39;0.00;0.00;0.62;;;;;24.10;1.00;;;;;;2280042;60;1030;-87
2021/09/26 08:30:41;203763.00;0.68;352.40;0.00;0.00;0.62;;;;;24.00;1.00;;;;;;2280044;60;1928;-87
2021/09/26 08:33:08;58647.00;0.20;102.14;0.00;0.00;0.62;;;;;23.50;1.00;;;;;;2280034;60;1268;-88
2021/09/26 08:35:37;211714.00;0.71;366.09;0.00;0.00;0.62;;;;;23.40;1.50;;;;;;2280014;60;965;-86
2021/09/26 08:38:04;226065.00;0.75;390.78;0.00;0.00;0.62;;;;;23.40;2.80;;;;;;2280587;60;1037;-86
2021/09/26 08:40:32;62581.00;0.21;108.94;0.00;0.00;0.62;;;;;23.40;3.70;;;;;;2280702;60;1146;-86
2021/09/26 08:43:00;329824.00;1.10;569.18;0.00;0.00;0.62;;;;;23.30;3.40;;;;;;2280678;60;1395;-86
2021/09/26 08:45:27;194875.00;0.65;337.10;0.00;0.00;0.62;;;;;23.10;4.40;;;;;;2280690;60;1071;-86
2021/09/26 08:47:54;143393.00;0.48;248.42;0.00;0.00;0.62;;;;;23.10;5.70;;;;;;2280632;60;1028;-87
2021/09/26 08:50:23;650952.00;2.17;1122.28;125319.00;0.42;217.26;;;;;23.10;5.40;;;;;;2280663;60;1919;-86
2021/09/26 08:52:52;167385.00;0.56;289.76;0.00;0.00;0.62;;;;;23.20;4.70;;;;;;2280616;60;1270;-86
2021/09/26 08:55:19;599237.00;2.00;1032.90;108456.00;0.36;188.17;;;;;23.40;4.80;;;;;;2280656;60;1039;-86
2021/09/26 08:57:46;179423.00;0.60;310.50;0.00;0.00;0.62;;;;;23.30;5.00;;;;;;2280668;60;1004;-87
2021/09/26 09:00:16;202601.00;0.68;350.40;0.00;0.00;0.62;;;;;23.40;4.40;;;;;;2280668;60;1129;-87
2021/09/26 09:02:45;450443.00;1.50;776.54;109886.00;0.37;190.63;;;;;23.40;4.40;;;;;;2280576;60;1237;-86
2021/09/26 09:05:28;125311.00;0.42;217.24;0.00;0.00;0.62;;;;;23.40;3.80;;;;;;2280708;60;876;-86
2021/09/26 09:08:06;262136.00;0.87;452.82;0.00;0.00;0.62;;;;;22.70;5.00;;;;;;2280592;60;1107;-85
2021/09/26 09:10:39;103572.00;0.35;179.74;0.00;0.00;0.62;;;;;22.30;5.70;;;;;;2280543;60;1915;-86
2021/09/26 09:13:06;191864.00;0.64;331.92;0.00;0.00;0.62;;;;;22.30;6.00;;;;;;2280510;60;1485;-87
2021/09/26 09:15:33;310777.00;1.04;536.45;0.00;0.00;0.62;;;;;22.50;6.20;;;;;;2280510;60;1067;-89
2021/09/26 09:18:02;409645.00;1.37;706.39;13411.00;0.04;23.86;;;;;22.50;6.50;;;;;;2280433;60;984;-89
2021/09/26 09:20:31;469240.00;1.56;808.88;0.00;0.00;0.62;;;;;22.60;4.40;;;;;;2280576;60;990;-90
2021/09/26 09:23:07;358295.00;1.19;618.12;14739.00;0.05;26.16;;;;;22.70;5.50;;;;;;2280569;60;1327;-90
2021/09/26 13:44:02;324565.00;1.08;560.14;0.00;0.00;0.62;;;;;27.90;1.00;;;;;;2265451;40;3385;31
2021/09/26 14:53:34;383304.00;1.28;661.10;0.00;0.00;0.62;;;;;26.70;1.00;;;;;;2274362;61;1265;-91
